Time;durP1;ratioP1;P1;durP2;ratioP2;P2;SDS_P1;SDS_P2;PMS_P1;PMS_P2;Temp;Humidity;BMP_temperature;BMP_pressure;BME280_temperature;BME280_humidity;BME280_pressure;Samples;Min_cycle;Max_cycle;Signal;HPM_P1;HPM_P2
2023/03/12 00:01:25;;;;;;;;;;;;;;;3.24;62.22;101100.47;5019997;28;19967;-61
2023/03/12 00:03:52;;;;;;;;;;;;;;;3.26;62.08;101096.75;5022535;28;19925;-62
2023/03/12 00:06:18;;;;;;;;;;;;;;;3.28;62.16;101092.22;5019765;28;19921;-61
2023/03/12 00:08:44;;;;;;;;;;;;;;;3.28;62.37;101094.84;5024040;28;19925;-61
2023/03/12 00:11:09;;;;;;;;;;;;;;;3.30;62.76;101086.88;5023772;28;19924;-61
2023/03/12 00:13:35;;;;;;;;;;;;;;;3.28;62.86;101092.22;5020518;28;19924;-62
2023/03/12 00:16:04;;;;;;;;;;;;;;;3.27;62.83;101082.69;5028829;28;19917;-61
2023/03/12 00:18:30;;;;;;;;;;;;;;;3.25;62.93;101089.84;5026059;28;20004;-62
2023/03/12 00:20:55;;;;;;;;;;;;;;;3.21;62.86;101077.09;5026519;28;20004;-62
2023/03/12 00:23:20;;;;;;;;;;;;;;;3.16;63.07;101077.41;5024465;28;19917;-61
2023/03/12 00:25:45;;;;;;;;;;;;;;;3.10;63.01;101067.38;5024175;28;20032;-62
2023/03/12 00:28:10;;;;;;;;;;;;;;;3.07;63.27;101065.84;5027140;28;20024;-62
2023/03/12 00:30:36;;;;;;;;;;;;;;;3.07;63.40;101063.22;5028058;28;19983;-61
2023/03/12 00:33:01;;;;;;;;;;;;;;;3.06;63.31;101056.28;5022596;28;19917;-62
2023/03/12 00:35:26;;;;;;;;;;;;;;;3.08;63.21;101058.78;5019022;28;19978;-62
2023/03/12 00:37:51;;;;;;;;;;;;;;;3.05;63.47;101059.03;5019411;28;19921;-62
2023/03/12 00:40:16;;;;;;;;;;;;;;;3.04;63.25;101060.81;5022759;28;19999;-62
2023/03/12 00:42:41;;;;;;;;;;;;;;;3.04;63.29;101050.31;5013156;28;20405;-61
2023/03/12 00:45:07;;;;;;;;;;;;;;;3.02;63.48;101054.84;5016882;28;19988;-62
2023/03/12 00:47:32;;;;;;;;;;;;;;;3.02;63.55;101049.59;5024153;28;20290;-61
2023/03/12 00:49:57;;;;;;;;;;;;;;;2.99;63.50;101047.22;5019863;28;19917;-61
2023/03/12 00:52:22;;;;;;;;;;;;;;;2.98;63.65;101045.56;5021110;28;19931;-62
2023/03/12 00:54:47;;;;;;;;;;;;;;;2.96;63.64;101047.47;5024756;28;19921;-61
2023/03/12 00:57:13;;;;;;;;;;;;;;;2.96;64.08;101036.13;5019236;28;20016;-62
2023/03/12 00:59:39;;;;;;;;;;;;;;;2.96;64.05;101036.97;5028213;28;20547;-61
2023/03/12 01:02:04;;;;;;;;;;;;;;;2.96;64.04;101034.34;5024018;28;19975;-62
2023/03/12 01:04:29;;;;;;;;;;;;;;;2.98;63.83;101036.84;5025258;28;19917;-62
2023/03/12 01:06:55;;;;;;;;;;;;;;;2.98;63.80;101024.56;5020307;28;19936;-61
2023/03/12 01:09:20;;;;;;;;;;;;;;;2.98;63.91;101016.69;5020799;28;19918;-61
2023/03/12 01:11:45;;;;;;;;;;;;;;;2.99;63.65;101022.78;5020047;28;20417;-61
2023/03/12 01:14:10;;;;;;;;;;;;;;;2.98;63.76;101028.97;5021560;28;19921;-61
2023/03/12 01:16:35;;;;;;;;;;;;;;;2.96;63.99;101025.63;5019359;28;20282;-62
2023/03/12 01:19:01;;;;;;;;;;;;;;;2.95;64.10;101027.44;5029195;28;19921;-62
2023/03/12 01:21:27;;;;;;;;;;;;;;;2.94;64.08;101017.88;5021962;28;20052;-61
2023/03/12 01:23:52;;;;;;;;;;;;;;;2.94;64.18;101020.50;5026772;28;20405;-61
2023/03/12 01:26:17;;;;;;;;;;;;;;;2.95;63.99;101018.72;5024836;28;19948;-61
2023/03/12 01:28:43;;;;;;;;;;;;;;;2.96;63.99;101015.16;5024903;28;19921;-61
2023/03/12 01:31:09;;;;;;;;;;;;;;;2.95;64.02;101026.59;5015409;28;19936;-62
2023/03/12 01:33:34;;;;;;;;;;;;;;;2.94;64.10;101022.31;5020832;28;19917;-62
2023/03/12 01:36:00;;;;;;;;;;;;;;;2.94;64.08;101012.66;5023363;28;20606;-62
2023/03/12 01:38:25;;;;;;;;;;;;;;;2.96;64.41;101015.16;5027059;28;19917;-62
2023/03/12 01:40:50;;;;;;;;;;;;;;;2.97;64.25;101008.94;5028053;28;19920;-62
2023/03/12 01:43:24;;;;;;;;;;;;;;;2.97;64.38;100993.22;5024822;28;19917;-61
2023/03/12 01:45:59;;;;;;;;;;;;;;;2.96;64.32;100991.53;5026771;28;19963;-61
2023/03/12 01:48:26;;;;;;;;;;;;;;;2.92;64.46;100990.09;5024797;28;19994;-62
2023/03/12 01:50:51;;;;;;;;;;;;;;;2.89;64.89;100987.69;5014252;28;19920;-61
2023/03/12 01:53:16;;;;;;;;;;;;;;;2.87;64.91;100994.84;5013586;28;19925;-62
2023/03/12 01:55:42;;;;;;;;;;;;;;;2.85;64.98;100984.47;5023657;28;19917;-61
2023/03/12 01:58:08;;;;;;;;;;;;;;;2.85;64.84;100984.47;5017244;28;19931;-61
2023/03/12 02:00:33;;;;;;;;;;;;;;;2.87;64.58;100979.94;5028821;28;20393;-61
2023/03/12 02:03:01;;;;;;;;;;;;;;;2.90;64.59;100982.34;5018248;28;19921;-61
2023/03/12 02:05:26;;;;;;;;;;;;;;;2.91;64.73;100975.31;5023915;28;19921;-61
2023/03/12 02:07:51;;;;;;;;;;;;;;;2.94;64.80;100981.16;5019671;28;19932;-61
2023/03/12 02:10:17;;;;;;;;;;;;;;;2.93;64.75;100976.88;5023982;28;19917;-61
2023/03/12 02:12:42;;;;;;;;;;;;;;;2.96;64.69;100975.81;5021343;28;20382;-62
2023/03/12 02:15:08;;;;;;;;;;;;;;;2.98;64.40;100972.09;5025710;28;20007;-61
2023/03/12 02:17:34;;;;;;;;;;;;;;;3.01;64.38;100969.25;5018049;28;19921;-62
2023/03/12 02:20:12;;;;;;;;;;;;;;;3.01;64.29;100968.41;5027642;28;19917;-61
2023/03/12 02:22:39;;;;;;;;;;;;;;;3.06;64.32;100955.75;5018725;28;20424;-61
2023/03/12 02:25:26;;;;;;;;;;;;;;;3.03;64.14;100943.72;5018913;28;20003;-61
2023/03/12 02:27:51;;;;;;;;;;;;;;;3.03;64.12;100946.34;5017017;28;19917;-61
2023/03/12 02:30:16;;;;;;;;;;;;;;;3.03;63.98;100941.09;5021728;28;19917;-62
2023/03/12 02:32:42;;;;;;;;;;;;;;;3.06;64.18;100943.47;5022926;28;19924;-61
2023/03/12 02:35:08;;;;;;;;;;;;;;;3.05;64.28;100943.59;5024117;28;19923;-61
2023/03/12 02:37:33;;;;;;;;;;;;;;;3.04;63.98;100942.75;5018860;28;19971;-62
2023/03/12 02:40:01;;;;;;;;;;;;;;;3.03;64.34;100940.25;5019344;28;20345;-62
2023/03/12 02:42:26;;;;;;;;;;;;;;;3.03;64.29;100940.25;5025255;28;19970;-62
2023/03/12 02:44:52;;;;;;;;;;;;;;;3.01;64.56;100945.63;5025746;28;19921;-61
2023/03/12 02:47:17;;;;;;;;;;;;;;;2.99;64.92;100939.66;5026543;28;19917;-62
2023/03/12 02:49:43;;;;;;;;;;;;;;;2.99;65.19;100933.59;5015918;28;19924;-62
2023/03/12 02:52:08;;;;;;;;;;;;;;;3.00;65.16;100940.50;5022035;28;20012;-61
2023/03/12 02:54:34;;;;;;;;;;;;;;;2.95;65.23;100940.03;5020246;28;19917;-61
2023/03/12 02:56:59;;;;;;;;;;;;;;;2.92;65.33;100928.00;5017148;28;19922;-61
2023/03/12 02:59:25;;;;;;;;;;;;;;;2.92;65.28;100919.28;5022493;28;19928;-62
2023/03/12 03:01:54;;;;;;;;;;;;;;;2.91;65.56;100920.25;5023721;28;19921;-61
2023/03/12 03:04:20;;;;;;;;;;;;;;;2.88;65.81;100921.28;5019100;28;19925;-61
2023/03/12 03:06:47;;;;;;;;;;;;;;;2.88;65.79;100920.47;5024719;28;20083;-62
2023/03/12 03:09:12;;;;;;;;;;;;;;;2.86;65.77;100917.94;5023247;28;19964;-62
2023/03/12 03:11:37;;;;;;;;;;;;;;;2.85;65.94;100923.31;5019294;28;20356;-61
2023/03/12 03:14:03;;;;;;;;;;;;;;;2.86;66.11;100927.59;5023114;28;19933;-61
2023/03/12 03:16:28;;;;;;;;;;;;;;;2.88;66.19;100929.16;5012395;28;19999;-61
2023/03/12 03:18:53;;;;;;;;;;;;;;;2.89;66.47;100928.25;5018900;28;19924;-61
2023/03/12 03:21:19;;;;;;;;;;;;;;;2.91;66.43;100928.13;5021715;28;19917;-62
2023/03/12 03:23:45;;;;;;;;;;;;;;;2.92;66.63;100932.41;5019145;28;19921;-62
2023/03/12 03:26:10;;;;;;;;;;;;;;;2.92;66.82;100928.00;5025725;28;19931;-61
2023/03/12 03:28:35;;;;;;;;;;;;;;;2.92;67.07;100927.16;5024646;28;19917;-62
2023/03/12 03:31:01;;;;;;;;;;;;;;;2.94;67.20;100930.50;5021814;28;19924;-62
2023/03/12 03:33:29;;;;;;;;;;;;;;;2.94;67.48;100925.25;5024710;28;19924;-61
2023/03/12 03:35:55;;;;;;;;;;;;;;;2.94;67.42;100922.63;5017948;28;19917;-61
2023/03/12 03:38:21;;;;;;;;;;;;;;;2.93;67.68;100923.59;5019494;28;19920;-62
2023/03/12 03:40:46;;;;;;;;;;;;;;;2.92;67.65;100912.25;5021000;28;19947;-61
2023/03/12 03:43:11;;;;;;;;;;;;;;;2.92;67.96;100914.03;5015424;28;19917;-61
2023/03/12 03:45:37;;;;;;;;;;;;;;;2.87;68.55;100909.13;5018205;28;20399;-61
2023/03/12 03:48:02;;;;;;;;;;;;;;;2.84;69.23;100906.75;5017031;28;19929;-61
2023/03/12 03:50:27;;;;;;;;;;;;;;;2.83;69.50;100912.13;5019052;28;20246;-61
2023/03/12 03:52:52;;;;;;;;;;;;;;;2.83;69.94;100901.63;5022779;28;19921;-62
2023/03/12 03:55:17;;;;;;;;;;;;;;;2.84;70.09;100893.63;5025382;28;19921;-61
2023/03/12 03:57:43;;;;;;;;;;;;;;;2.86;70.30;100891.72;5018883;28;20375;-61
2023/03/12 04:00:11;;;;;;;;;;;;;;;2.89;70.66;100886.28;5021509;28;19928;-61
2023/03/12 04:02:37;;;;;;;;;;;;;;;2.93;70.61;100876.38;5032460;28;19956;-61
2023/03/12 04:05:02;;;;;;;;;;;;;;;2.94;70.67;100875.41;5020128;28;19956;-61
2023/03/12 04:07:28;;;;;;;;;;;;;;;2.95;70.66;100862.19;5030806;28;19925;-60
2023/03/12 04:09:53;;;;;;;;;;;;;;;2.98;70.68;100855.84;5019695;28;19960;-61
2023/03/12 04:12:18;;;;;;;;;;;;;;;2.99;70.81;100855.72;5029600;28;19917;-61
2023/03/12 04:14:44;;;;;;;;;;;;;;;3.00;70.70;100849.53;5022727;28;20563;-61
2023/03/12 04:17:09;;;;;;;;;;;;;;;3.01;70.68;100847.72;5022724;28;20387;-61
2023/03/12 04:19:34;;;;;;;;;;;;;;;3.02;71.16;100844.16;5024497;28;20032;-60
2023/03/12 04:21:59;;;;;;;;;;;;;;;3.03;71.15;100837.94;5022219;28;19961;-61
2023/03/12 04:24:25;;;;;;;;;;;;;;;3.06;71.15;100835.09;5028363;28;20597;-61
2023/03/12 04:26:50;;;;;;;;;;;;;;;3.06;71.10;100824.59;5026255;28;20015;-62
2023/03/12 04:29:16;;;;;;;;;;;;;;;3.06;70.95;100812.31;5025440;28;19929;-61
2023/03/12 04:31:41;;;;;;;;;;;;;;;3.09;70.41;100812.06;5028981;28;19916;-61
2023/03/12 04:34:08;;;;;;;;;;;;;;;3.10;70.85;100816.34;5029225;28;19932;-61
2023/03/12 04:36:33;;;;;;;;;;;;;;;3.08;71.14;100799.06;5026845;28;19924;-61
2023/03/12 04:38:58;;;;;;;;;;;;;;;3.05;71.55;100807.19;5025578;28;19918;-60
2023/03/12 04:41:23;;;;;;;;;;;;;;;3.06;71.40;100811.47;5022498;28;20298;-61
2023/03/12 04:43:48;;;;;;;;;;;;;;;3.05;71.43;100799.31;5020777;28;19917;-61
2023/03/12 04:46:13;;;;;;;;;;;;;;;3.06;71.48;100819.34;5030137;28;19936;-62
2023/03/12 04:48:39;;;;;;;;;;;;;;;3.04;71.55;100811.59;5016510;28;20481;-61
2023/03/12 04:51:04;;;;;;;;;;;;;;;3.03;71.98;100802.06;5026844;28;20337;-61
2023/03/12 04:53:30;;;;;;;;;;;;;;;3.02;71.99;100804.81;5020735;28;20013;-61
2023/03/12 04:55:55;;;;;;;;;;;;;;;2.92;72.27;100788.16;5024222;28;19923;-60
2023/03/12 04:58:21;;;;;;;;;;;;;;;3.00;71.99;100798.84;5017545;28;19913;-61
2023/03/12 05:00:47;;;;;;;;;;;;;;;2.97;72.45;100794.69;5026874;28;19925;-61
2023/03/12 05:03:12;;;;;;;;;;;;;;;2.96;72.33;100790.41;5022825;28;19932;-61
2023/03/12 05:05:37;;;;;;;;;;;;;;;2.97;72.24;100792.06;5027967;28;19921;-61
2023/03/12 05:08:03;;;;;;;;;;;;;;;2.98;72.46;100787.66;5029511;28;19917;-61
2023/03/12 05:10:28;;;;;;;;;;;;;;;2.96;72.28;100777.28;5026850;28;19921;-60
2023/03/12 05:12:53;;;;;;;;;;;;;;;2.97;72.41;100780.75;5017806;28;19960;-60
2023/03/12 05:15:18;;;;;;;;;;;;;;;2.98;72.06;100769.28;5028303;28;19948;-61
2023/03/12 05:17:44;;;;;;;;;;;;;;;2.97;72.19;100760.59;5019908;28;20521;-61
2023/03/12 05:20:09;;;;;;;;;;;;;;;2.99;72.27;100757.84;5027332;28;20020;-61
2023/03/12 05:22:35;;;;;;;;;;;;;;;2.98;72.38;100767.50;5014947;28;19921;-61
2023/03/12 05:25:00;;;;;;;;;;;;;;;2.98;72.24;100754.38;5023410;28;20019;-61
2023/03/12 05:27:25;;;;;;;;;;;;;;;2.97;72.57;100755.34;5026129;28;19965;-61
2023/03/12 05:29:51;;;;;;;;;;;;;;;2.97;72.96;100752.72;5023065;28;20011;-61
2023/03/12 05:32:16;;;;;;;;;;;;;;;2.97;73.08;100747.47;5021811;28;20038;-61
2023/03/12 05:34:41;;;;;;;;;;;;;;;2.95;73.33;100752.00;5016526;28;19914;-61
2023/03/12 05:37:06;;;;;;;;;;;;;;;2.94;73.57;100752.97;5022265;28;19917;-61
2023/03/12 05:39:32;;;;;;;;;;;;;;;2.91;74.15;100750.59;5025844;28;19956;-61
2023/03/12 05:41:57;;;;;;;;;;;;;;;2.90;74.36;100756.81;5023022;28;19917;-61
2023/03/12 05:44:23;;;;;;;;;;;;;;;2.90;74.57;100754.19;5024014;28;19913;-61
2023/03/12 05:46:49;;;;;;;;;;;;;;;2.88;75.18;100750.81;5018713;28;20170;-61
2023/03/12 05:49:14;;;;;;;;;;;;;;;2.89;75.63;100754.28;5029155;28;19921;-60
2023/03/12 05:51:39;;;;;;;;;;;;;;;2.88;75.55;100745.56;5026527;28;19916;-61
2023/03/12 05:54:04;;;;;;;;;;;;;;;2.90;75.67;100753.34;5015520;28;19972;-61
2023/03/12 05:56:29;;;;;;;;;;;;;;;2.89;76.40;100752.50;5024758;28;19914;-61
2023/03/12 05:58:55;;;;;;;;;;;;;;;2.89;76.40;100747.25;5020904;28;20051;-61
2023/03/12 06:01:21;;;;;;;;;;;;;;;2.90;77.03;100746.31;5017631;28;19917;-61
2023/03/12 06:03:47;;;;;;;;;;;;;;;2.89;77.51;100744.66;5017893;28;19915;-61
2023/03/12 06:06:12;;;;;;;;;;;;;;;2.89;77.94;100744.66;5021660;28;20424;-61
2023/03/12 06:08:38;;;;;;;;;;;;;;;2.89;78.23;100751.66;5017831;28;19971;-61
2023/03/12 06:11:03;;;;;;;;;;;;;;;2.88;78.80;100752.59;5022764;28;19925;-61
2023/03/12 06:13:29;;;;;;;;;;;;;;;2.87;79.44;100766.66;5018779;28;19932;-61
2023/03/12 06:16:00;;;;;;;;;;;;;;;2.83;80.08;100752.97;5027269;28;19921;-60
2023/03/12 06:18:25;;;;;;;;;;;;;;;2.80;81.20;100761.94;5022251;28;19925;-61
2023/03/12 06:20:50;;;;;;;;;;;;;;;2.75;81.95;100758.84;5024465;28;19920;-60
2023/03/12 06:23:15;;;;;;;;;;;;;;;2.74;82.16;100772.06;5013490;28;20043;-61
2023/03/12 06:25:43;;;;;;;;;;;;;;;2.74;82.99;100757.19;5024212;28;19928;-60
2023/03/12 06:28:08;;;;;;;;;;;;;;;2.76;82.96;100750.03;5015599;28;19914;-61
2023/03/12 06:30:33;;;;;;;;;;;;;;;2.76;83.13;100747.41;5020322;28;19928;-61
2023/03/12 06:32:59;;;;;;;;;;;;;;;2.76;83.42;100742.16;5019620;28;20272;-61
2023/03/12 06:35:24;;;;;;;;;;;;;;;2.78;83.46;100736.78;5016306;28;19932;-61
2023/03/12 06:37:49;;;;;;;;;;;;;;;2.80;83.71;100740.94;5017131;28;19920;-62
2023/03/12 06:40:14;;;;;;;;;;;;;;;2.79;85.08;100741.91;5014038;28;20013;-61
2023/03/12 06:42:39;;;;;;;;;;;;;;;2.75;85.58;100737.03;5021847;28;19917;-61
2023/03/12 06:45:05;;;;;;;;;;;;;;;2.75;85.76;100737.88;5023808;28;20023;-61
2023/03/12 06:47:30;;;;;;;;;;;;;;;2.76;85.25;100729.03;5020256;28;19917;-61
2023/03/12 06:49:55;;;;;;;;;;;;;;;2.79;85.24;100722.72;5014289;28;20367;-61
2023/03/12 06:52:21;;;;;;;;;;;;;;;2.82;84.99;100716.38;5021531;28;19921;-61
2023/03/12 06:54:46;;;;;;;;;;;;;;;2.84;85.16;100710.06;5020174;28;20405;-61
2023/03/12 06:57:15;;;;;;;;;;;;;;;2.86;85.31;100709.94;5021974;28;21300;-61
2023/03/12 06:59:40;;;;;;;;;;;;;;;2.86;85.30;100702.91;5017182;28;19952;-61
2023/03/12 07:02:05;;;;;;;;;;;;;;;2.89;85.70;100707.06;5025790;28;20524;-61
2023/03/12 07:04:30;;;;;;;;;;;;;;;2.91;85.58;100697.31;5024704;28;20032;-60
2023/03/12 07:06:56;;;;;;;;;;;;;;;2.93;86.84;100706.72;5025401;28;19921;-61
2023/03/12 07:09:21;;;;;;;;;;;;;;;2.93;87.45;100700.63;5024504;28;19995;-61
2023/03/12 07:11:46;;;;;;;;;;;;;;;2.93;88.30;100705.88;5022909;28;19917;-62
2023/03/12 07:14:11;;;;;;;;;;;;;;;2.92;88.69;100701.59;5025628;28;20354;-61
2023/03/12 07:16:37;;;;;;;;;;;;;;;2.92;89.61;100701.59;5025083;28;19932;-61
2023/03/12 07:19:02;;;;;;;;;;;;;;;2.91;90.09;100699.94;5023460;28;19971;-61
2023/03/12 07:21:27;;;;;;;;;;;;;;;2.89;90.72;100704.44;5016386;28;19917;-61
2023/03/12 07:23:53;;;;;;;;;;;;;;;2.91;91.59;100705.19;5015778;28;19929;-62
2023/03/12 07:26:18;;;;;;;;;;;;;;;2.90;92.52;100706.13;5021506;28;20326;-61
2023/03/12 07:28:43;;;;;;;;;;;;;;;2.90;93.47;100706.13;5015841;28;19917;-61
2023/03/12 07:31:08;;;;;;;;;;;;;;;2.90;94.04;100717.47;5025161;28;19925;-61
2023/03/12 07:33:33;;;;;;;;;;;;;;;2.87;94.59;100704.56;5023513;28;19998;-61
2023/03/12 07:35:59;;;;;;;;;;;;;;;2.88;95.33;100715.88;5021984;28;19921;-61
2023/03/12 07:38:24;;;;;;;;;;;;;;;2.86;95.90;100699.44;5022512;28;19963;-61
2023/03/12 07:40:53;;;;;;;;;;;;;;;2.87;96.04;100711.59;5017395;28;20008;-61
2023/03/12 07:43:19;;;;;;;;;;;;;;;2.85;96.51;100711.72;5025515;28;19917;-61
2023/03/12 07:45:44;;;;;;;;;;;;;;;2.84;96.94;100694.31;5015089;28;19921;-61
2023/03/12 07:48:09;;;;;;;;;;;;;;;2.87;97.24;100714.22;5010452;28;19936;-61
2023/03/12 07:50:34;;;;;;;;;;;;;;;2.87;97.62;100711.59;5011366;28;20349;-61
2023/03/12 07:53:00;;;;;;;;;;;;;;;2.87;98.40;100719.47;5008926;28;19931;-61
2023/03/12 07:55:25;;;;;;;;;;;;;;;2.87;98.87;100719.47;5023263;28;20436;-61
2023/03/12 07:57:51;;;;;;;;;;;;;;;2.89;99.33;100728.03;5007850;28;19949;-61
2023/03/12 08:00:16;;;;;;;;;;;;;;;2.91;99.74;100721.75;5031308;28;19927;-61
2023/03/12 08:02:42;;;;;;;;;;;;;;;2.93;100.00;100708.50;5019785;28;20398;-61
2023/03/12 08:05:07;;;;;;;;;;;;;;;2.96;100.00;100710.88;5026639;28;19963;-61
2023/03/12 08:07:33;;;;;;;;;;;;;;;3.00;100.00;100714.91;5013458;28;19952;-60
2023/03/12 08:09:59;;;;;;;;;;;;;;;3.06;100.00;100712.63;5019635;28;19967;-61
2023/03/12 08:12:24;;;;;;;;;;;;;;;3.10;100.00;100710.56;5016454;28;19925;-61
2023/03/12 08:14:49;;;;;;;;;;;;;;;3.15;100.00;100699.69;5019713;28;20383;-61
2023/03/12 08:17:14;;;;;;;;;;;;;;;3.19;100.00;100703.75;5023427;28;19999;-61
2023/03/12 08:19:41;;;;;;;;;;;;;;;3.24;100.00;100712.06;5013271;28;19995;-61
2023/03/12 08:22:06;;;;;;;;;;;;;;;3.28;100.00;100709.06;5016625;28;20382;-61
2023/03/12 08:24:31;;;;;;;;;;;;;;;3.33;100.00;100708.69;5018510;28;19913;-61
2023/03/12 08:26:56;;;;;;;;;;;;;;;3.39;100.00;100716.03;5022398;28;20016;-62
2023/03/12 08:29:21;;;;;;;;;;;;;;;3.43;100.00;100712.19;5017546;28;19917;-61
2023/03/12 08:31:47;;;;;;;;;;;;;;;3.47;100.00;100716.25;5016869;28;20020;-61
2023/03/12 08:34:12;;;;;;;;;;;;;;;3.52;100.00;100715.88;5021456;28;20395;-61
2023/03/12 08:36:37;;;;;;;;;;;;;;;3.57;100.00;100716.31;5023479;28;19925;-61
2023/03/12 08:39:03;;;;;;;;;;;;;;;3.61;100.00;100726.41;5024481;28;19918;-61
2023/03/12 08:41:29;;;;;;;;;;;;;;;3.68;100.00;100721.47;5026522;28;19913;-62
2023/03/12 08:43:54;;;;;;;;;;;;;;;3.73;100.00;100729.78;5021555;28;20333;-61
2023/03/12 08:46:19;;;;;;;;;;;;;;;3.79;100.00;100733.72;5021943;28;19925;-61
2023/03/12 08:48:44;;;;;;;;;;;;;;;3.84;100.00;100734.16;5021193;28;19962;-61
2023/03/12 08:51:09;;;;;;;;;;;;;;;3.88;100.00;100733.78;5029672;28;19913;-61
2023/03/12 08:53:35;;;;;;;;;;;;;;;3.94;100.00;100743.75;5022971;28;20027;-61
2023/03/12 08:56:01;;;;;;;;;;;;;;;4.00;100.00;100732.72;5026352;28;19913;-62
2023/03/12 08:58:26;;;;;;;;;;;;;;;4.07;100.00;100732.22;5024005;28;19914;-61
2023/03/12 09:00:52;;;;;;;;;;;;;;;4.14;100.00;100736.81;5020249;28;19918;-61
2023/03/12 09:03:17;;;;;;;;;;;;;;;4.20;100.00;100738.06;5025047;28;19952;-61
2023/03/12 09:05:43;;;;;;;;;;;;;;;4.34;100.00;100740.34;5023290;28;19940;-61
2023/03/12 09:08:09;;;;;;;;;;;;;;;4.54;100.00;100741.22;5018443;28;20543;-61
2023/03/12 09:10:34;;;;;;;;;;;;;;;4.63;100.00;100741.28;5021438;28;19917;-62
2023/03/12 09:13:00;;;;;;;;;;;;;;;4.74;100.00;100728.97;5019175;28;19928;-61
2023/03/12 09:15:25;;;;;;;;;;;;;;;4.84;100.00;100735.91;5026689;28;20432;-61
2023/03/12 09:17:50;;;;;;;;;;;;;;;4.94;100.00;100734.13;5024464;28;19917;-61
2023/03/12 09:20:16;;;;;;;;;;;;;;;5.04;100.00;100735.94;5030831;28;19919;-61
2023/03/12 09:22:41;;;;;;;;;;;;;;;5.10;100.00;100728.31;5019110;28;20154;-61
2023/03/12 09:25:08;;;;;;;;;;;;;;;5.21;100.00;100722.09;5028786;28;20386;-62
2023/03/12 09:27:36;;;;;;;;;;;;;;;5.31;100.00;100719.44;5017930;28;20398;-62
2023/03/12 09:30:01;;;;;;;;;;;;;;;5.41;100.00;100736.06;5030581;28;19961;-62
2023/03/12 09:32:27;;;;;;;;;;;;;;;5.51;100.00;100727.19;5019034;28;20026;-61
2023/03/12 09:34:53;;;;;;;;;;;;;;;5.60;100.00;100733.41;5026367;28;20360;-62
2023/03/12 09:37:18;;;;;;;;;;;;;;;5.73;100.00;100733.94;5020142;28;19979;-62
2023/03/12 09:39:43;;;;;;;;;;;;;;;5.85;100.00;100735.47;5028405;28;19917;-61
2023/03/12 09:42:14;;;;;;;;;;;;;;;5.94;100.00;100731.16;5022619;28;20004;-61
2023/03/12 09:44:42;;;;;;;;;;;;;;;6.03;100.00;100732.09;5020291;28;19917;-61
2023/03/12 09:47:08;;;;;;;;;;;;;;;6.11;100.00;100735.69;5022665;28;19944;-61
2023/03/12 09:49:37;;;;;;;;;;;;;;;6.19;100.00;100745.50;5018138;28;20307;-61
2023/03/12 09:52:06;;;;;;;;;;;;;;;6.28;100.00;100749.06;5020301;28;19922;-61
2023/03/12 09:54:45;;;;;;;;;;;;;;;6.39;100.00;100764.72;5011017;28;20020;-61
2023/03/12 09:57:13;;;;;;;;;;;;;;;6.44;100.00;100762.47;5028565;28;19975;-62
2023/03/12 09:59:38;;;;;;;;;;;;;;;6.56;100.00;100755.19;5013657;28;19918;-62
2023/03/12 10:02:10;;;;;;;;;;;;;;;6.62;100.00;100765.16;5026362;28;19970;-61
2023/03/12 10:04:35;;;;;;;;;;;;;;;6.65;100.00;100765.72;5023215;28;19921;-62
2023/03/12 10:07:04;;;;;;;;;;;;;;;6.73;100.00;100757.06;5024654;28;20049;-61
2023/03/12 10:09:48;;;;;;;;;;;;;;;6.79;100.00;100757.28;5018069;28;19917;-62
2023/03/12 10:12:17;;;;;;;;;;;;;;;6.92;100.00;100769.28;5019155;28;19956;-61
2023/03/12 10:15:00;;;;;;;;;;;;;;;7.04;100.00;100763.66;5012281;28;19917;-61
2023/03/12 10:17:36;;;;;;;;;;;;;;;7.10;100.00;100757.78;5016979;28;19921;-62
2023/03/12 10:20:17;;;;;;;;;;;;;;;7.18;100.00;100756.19;5021434;28;19964;-62
2023/03/12 10:22:55;;;;;;;;;;;;;;;7.29;100.00;100761.28;5016007;28;19972;-62
2023/03/12 10:25:27;;;;;;;;;;;;;;;7.36;100.00;100762.31;5013472;28;19929;-62
2023/03/12 10:27:57;;;;;;;;;;;;;;;7.33;100.00;100750.25;5022734;28;19924;-61
2023/03/12 10:30:24;;;;;;;;;;;;;;;7.33;100.00;100760.81;5012598;28;20004;-61
2023/03/12 10:32:52;;;;;;;;;;;;;;;7.35;100.00;100769.41;5021316;28;19929;-61
2023/03/12 10:35:18;;;;;;;;;;;;;;;7.39;100.00;100759.38;5018123;28;19924;-62
2023/03/12 10:37:46;;;;;;;;;;;;;;;7.45;100.00;100761.41;5017247;28;20024;-62
2023/03/12 10:40:16;;;;;;;;;;;;;;;7.52;100.00;100758.97;5022740;28;19951;-61
2023/03/12 10:42:42;;;;;;;;;;;;;;;7.59;100.00;100754.75;5021252;28;19923;-62
2023/03/12 10:45:10;;;;;;;;;;;;;;;7.71;100.00;100758.81;5017754;28;19922;-61
2023/03/12 10:47:35;;;;;;;;;;;;;;;7.77;100.00;100747.59;5013419;28;19928;-62
2023/03/12 10:50:19;;;;;;;;;;;;;;;7.81;100.00;100753.44;5017949;28;19917;-62
2023/03/12 10:52:45;;;;;;;;;;;;;;;7.82;100.00;100750.63;5017535;28;19921;-62
2023/03/12 10:55:12;;;;;;;;;;;;;;;7.89;100.00;100756.13;5017250;28;19918;-61
2023/03/12 10:57:39;;;;;;;;;;;;;;;7.92;100.00;100761.09;5025570;28;19913;-62
2023/03/12 11:00:11;;;;;;;;;;;;;;;7.94;100.00;100765.25;5020879;28;19913;-61
2023/03/12 11:02:44;;;;;;;;;;;;;;;7.97;100.00;100766.75;5018157;28;19917;-61
2023/03/12 11:05:21;;;;;;;;;;;;;;;8.03;100.00;100758.19;5020627;28;20017;-61
2023/03/12 11:07:47;;;;;;;;;;;;;;;8.02;100.00;100751.25;5018107;28;19917;-62
2023/03/12 11:10:12;;;;;;;;;;;;;;;8.08;100.00;100755.91;5016811;28;19924;-62
2023/03/12 11:12:38;;;;;;;;;;;;;;;8.12;100.00;100773.13;5023216;28;20705;-61
2023/03/12 11:15:20;;;;;;;;;;;;;;;8.19;100.00;100771.53;5027673;28;19914;-61
2023/03/12 11:17:46;;;;;;;;;;;;;;;8.24;100.00;100753.34;5016178;28;19921;-61
2023/03/12 11:20:23;;;;;;;;;;;;;;;8.27;100.00;100771.56;5017810;28;19921;-61
2023/03/12 11:22:48;;;;;;;;;;;;;;;8.34;100.00;100769.97;5010073;28;19917;-62
2023/03/12 11:25:19;;;;;;;;;;;;;;;8.47;100.00;100763.44;5017576;28;19928;-62
2023/03/12 11:27:48;;;;;;;;;;;;;;;8.52;100.00;100777.84;5019907;28;19917;-62
2023/03/12 11:30:15;;;;;;;;;;;;;;;8.61;100.00;100768.09;5021457;28;19920;-62
2023/03/12 11:32:42;;;;;;;;;;;;;;;8.65;100.00;100777.38;5022819;28;19921;-62
2023/03/12 11:35:12;;;;;;;;;;;;;;;8.69;100.00;100773.44;5013156;28;19917;-62
2023/03/12 11:37:49;;;;;;;;;;;;;;;8.72;100.00;100778.44;5017864;28;19925;-62
2023/03/12 11:40:20;;;;;;;;;;;;;;;8.72;100.00;100781.06;5018622;28;19917;-62
2023/03/12 11:42:48;;;;;;;;;;;;;;;8.68;100.00;100777.09;5016461;28;19917;-61
2023/03/12 11:45:30;;;;;;;;;;;;;;;8.61;100.00;100774.22;5020868;28;19929;-61
2023/03/12 11:48:07;;;;;;;;;;;;;;;8.64;100.00;100784.50;5022680;28;20406;-61
2023/03/12 11:50:44;;;;;;;;;;;;;;;8.81;100.00;100782.75;5020263;28;19924;-61
2023/03/12 11:53:20;;;;;;;;;;;;;;;8.95;100.00;100763.56;5020799;28;19964;-61
2023/03/12 11:55:54;;;;;;;;;;;;;;;9.19;100.00;100775.22;5024401;28;19927;-62
2023/03/12 11:58:29;;;;;;;;;;;;;;;9.25;100.00;100778.06;5014381;28;19960;-62
2023/03/12 12:01:00;;;;;;;;;;;;;;;9.28;100.00;100761.00;5018029;28;20345;-62
2023/03/12 12:03:25;;;;;;;;;;;;;;;9.35;100.00;100766.47;5021754;28;19925;-62
2023/03/12 12:05:53;;;;;;;;;;;;;;;9.35;100.00;100759.34;5024619;28;19932;-61
2023/03/12 12:08:37;;;;;;;;;;;;;;;9.37;100.00;100751.25;5022253;28;19913;-62
2023/03/12 12:11:11;;;;;;;;;;;;;;;9.46;100.00;100740.47;5017709;28;20386;-62
2023/03/12 12:13:36;;;;;;;;;;;;;;;9.54;100.00;100737.84;5022145;28;20004;-62
2023/03/12 12:16:16;;;;;;;;;;;;;;;9.61;100.00;100741.47;5022136;28;20012;-62
2023/03/12 12:18:41;;;;;;;;;;;;;;;9.66;100.00;100742.78;5023026;28;19979;-61
2023/03/12 12:21:18;;;;;;;;;;;;;;;9.69;100.00;100739.81;5023686;28;20382;-62
2023/03/12 12:23:57;;;;;;;;;;;;;;;9.72;100.00;100732.34;5015761;28;20369;-62
2023/03/12 12:26:36;;;;;;;;;;;;;;;9.77;100.00;100734.47;5027959;28;19921;-62
2023/03/12 12:29:11;;;;;;;;;;;;;;;9.79;100.00;100716.56;5029492;28;19917;-62
2023/03/12 12:31:39;;;;;;;;;;;;;;;9.76;100.00;100711.59;5022819;28;19921;-61
2023/03/12 12:34:10;;;;;;;;;;;;;;;9.75;100.00;100720.56;5022322;28;20627;-62
2023/03/12 12:36:35;;;;;;;;;;;;;;;9.74;100.00;100708.31;5027267;28;19956;-61
2023/03/12 12:39:24;;;;;;;;;;;;;;;9.72;100.00;100705.81;5019290;28;19951;-61
2023/03/12 12:41:52;;;;;;;;;;;;;;;9.74;100.00;100710.94;5015195;28;19917;-62